sensor_id;sensor_type;location;lat;lon;timestamp;pressure;altitude;pressure_sealevel;temperature;humidity
31538;BME280;18147;51.952;6.146;2023-01-08T00:01:09;100266.16;;;9.85;100.00
31538;BME280;18147;51.952;6.146;2023-01-08T00:03:35;100268.81;;;9.85;100.00
31538;BME280;18147;51.952;6.146;2023-01-08T00:06:07;100264.03;;;9.91;100.00
31538;BME280;18147;51.952;6.146;2023-01-08T00:08:33;100271.25;;;9.89;100.00
31538;BME280;18147;51.952;6.146;2023-01-08T00:10:59;100268.69;;;9.87;100.00
31538;BME280;18147;51.952;6.146;2023-01-08T00:13:25;100270.19;;;9.78;100.00
31538;BME280;18147;51.952;6.146;2023-01-08T00:15:51;100258.28;;;9.84;100.00
31538;BME280;18147;51.952;6.146;2023-01-08T00:18:17;100246.66;;;9.85;100.00
31538;BME280;18147;51.952;6.146;2023-01-08T00:20:43;100253.91;;;9.70;100.00
31538;BME280;18147;51.952;6.146;2023-01-08T00:23:11;100248.78;;;9.67;100.00
31538;BME280;18147;51.952;6.146;2023-01-08T00:25:36;100255.50;;;9.60;100.00
31538;BME280;18147;51.952;6.146;2023-01-08T00:28:02;100249.41;;;9.58;100.00
31538;BME280;18147;51.952;6.146;2023-01-08T00:30:28;100245.38;;;9.65;100.00
31538;BME280;18147;51.952;6.146;2023-01-08T00:32:53;100246.97;;;9.68;100.00
31538;BME280;18147;51.952;6.146;2023-01-08T00:35:19;100245.38;;;9.65;100.00
31538;BME280;18147;51.952;6.146;2023-01-08T00:37:48;100240.91;;;9.66;100.00
31538;BME280;18147;51.952;6.146;2023-01-08T00:40:13;100238.97;;;9.68;100.00
31538;BME280;18147;51.952;6.146;2023-01-08T00:42:38;100231.53;;;9.73;100.00
31538;BME280;18147;51.952;6.146;2023-01-08T00:45:04;100229.19;;;9.68;100.00
31538;BME280;18147;51.952;6.146;2023-01-08T00:47:30;100238.34;;;9.77;100.00
31538;BME280;18147;51.952;6.146;2023-01-08T00:49:55;100237.50;;;9.76;100.00
31538;BME280;18147;51.952;6.146;2023-01-08T00:52:21;100227.25;;;9.83;100.00
31538;BME280;18147;51.952;6.146;2023-01-08T00:54:46;100226.53;;;9.68;100.00
31538;BME280;18147;51.952;6.146;2023-01-08T00:57:12;100224.50;;;9.72;100.00
31538;BME280;18147;51.952;6.146;2023-01-08T00:59:37;100213.75;;;9.73;100.00
31538;BME280;18147;51.952;6.146;2023-01-08T01:02:02;100215.78;;;9.70;100.00
31538;BME280;18147;51.952;6.146;2023-01-08T01:04:28;100210.34;;;9.58;100.00
31538;BME280;18147;51.952;6.146;2023-01-08T01:06:53;100212.91;;;9.60;100.00
31538;BME280;18147;51.952;6.146;2023-01-08T01:09:19;100211.72;;;9.51;100.00
31538;BME280;18147;51.952;6.146;2023-01-08T01:11:44;100217.16;;;9.63;100.00
31538;BME280;18147;51.952;6.146;2023-01-08T01:14:10;100213.00;;;9.58;100.00
31538;BME280;18147;51.952;6.146;2023-01-08T01:16:35;100212.69;;;9.63;100.00
31538;BME280;18147;51.952;6.146;2023-01-08T01:19:01;100212.59;;;9.65;100.00
31538;BME280;18147;51.952;6.146;2023-01-08T01:21:29;100210.78;;;9.65;100.00
31538;BME280;18147;51.952;6.146;2023-01-08T01:23:56;100212.78;;;9.62;100.00
31538;BME280;18147;51.952;6.146;2023-01-08T01:26:23;100200.53;;;9.72;100.00
31538;BME280;18147;51.952;6.146;2023-01-08T01:28:52;100194.38;;;9.71;100.00
31538;BME280;18147;51.952;6.146;2023-01-08T01:31:18;100187.34;;;9.70;100.00
31538;BME280;18147;51.952;6.146;2023-01-08T01:33:44;100186.59;;;9.68;100.00
31538;BME280;18147;51.952;6.146;2023-01-08T01:36:14;100187.13;;;9.73;100.00
31538;BME280;18147;51.952;6.146;2023-01-08T01:38:44;100200.88;;;9.67;100.00
31538;BME280;18147;51.952;6.146;2023-01-08T01:41:31;100193.84;;;9.79;100.00
31538;BME280;18147;51.952;6.146;2023-01-08T01:43:59;100193.41;;;9.72;100.00
31538;BME280;18147;51.952;6.146;2023-01-08T01:49:03;100195.66;;;9.66;100.00
31538;BME280;18147;51.952;6.146;2023-01-08T01:51:32;100199.38;;;9.76;100.00
31538;BME280;18147;51.952;6.146;2023-01-08T01:53:59;100203.75;;;9.64;100.00
31538;BME280;18147;51.952;6.146;2023-01-08T01:56:27;100198.53;;;9.63;100.00
31538;BME280;18147;51.952;6.146;2023-01-08T01:58:53;100188.53;;;9.66;100.00
31538;BME280;18147;51.952;6.146;2023-01-08T02:01:20;100186.38;;;9.71;100.00
31538;BME280;18147;51.952;6.146;2023-01-08T02:03:46;100200.44;;;9.60;100.00
31538;BME280;18147;51.952;6.146;2023-01-08T02:06:22;100199.69;;;9.58;100.00
31538;BME280;18147;51.952;6.146;2023-01-08T02:09:13;100192.59;;;9.59;100.00
31538;BME280;18147;51.952;6.146;2023-01-08T02:20:33;100192.34;;;9.62;100.00
31538;BME280;18147;51.952;6.146;2023-01-08T02:28:34;100172.63;;;9.77;100.00
31538;BME280;18147;51.952;6.146;2023-01-08T02:31:01;100168.59;;;9.72;100.00
31538;BME280;18147;51.952;6.146;2023-01-08T02:33:28;100172.97;;;9.73;100.00
31538;BME280;18147;51.952;6.146;2023-01-08T02:36:29;100164.34;;;9.69;100.00
31538;BME280;18147;51.952;6.146;2023-01-08T02:41:53;100159.25;;;9.79;100.00
31538;BME280;18147;51.952;6.146;2023-01-08T02:46:55;100157.09;;;9.71;100.00
31538;BME280;18147;51.952;6.146;2023-01-08T02:49:27;100159.66;;;9.73;100.00
31538;BME280;18147;51.952;6.146;2023-01-08T02:51:56;100161.91;;;9.66;100.00
31538;BME280;18147;51.952;6.146;2023-01-08T02:54:27;100159.88;;;9.70;100.00
31538;BME280;18147;51.952;6.146;2023-01-08T02:56:59;100155.94;;;9.75;100.00
31538;BME280;18147;51.952;6.146;2023-01-08T02:59:28;100152.63;;;9.72;100.00
31538;BME280;18147;51.952;6.146;2023-01-08T03:01:56;100153.50;;;9.59;100.00
31538;BME280;18147;51.952;6.146;2023-01-08T03:04:23;100157.31;;;9.43;100.00
31538;BME280;18147;51.952;6.146;2023-01-08T03:06:50;100169.47;;;9.34;100.00
31538;BME280;18147;51.952;6.146;2023-01-08T03:09:16;100166.56;;;9.12;100.00
31538;BME280;18147;51.952;6.146;2023-01-08T03:11:56;100165.91;;;8.95;100.00
31538;BME280;18147;51.952;6.146;2023-01-08T03:17:16;100169.41;;;8.56;100.00
31538;BME280;18147;51.952;6.146;2023-01-08T03:19:49;100167.06;;;8.51;100.00
31538;BME280;18147;51.952;6.146;2023-01-08T03:22:18;100171.38;;;8.40;100.00
31538;BME280;18147;51.952;6.146;2023-01-08T03:24:47;100172.78;;;8.45;100.00
31538;BME280;18147;51.952;6.146;2023-01-08T03:27:17;100173.88;;;8.28;100.00
31538;BME280;18147;51.952;6.146;2023-01-08T03:29:45;100173.66;;;8.31;100.00
31538;BME280;18147;51.952;6.146;2023-01-08T03:32:15;100172.13;;;8.27;100.00
31538;BME280;18147;51.952;6.146;2023-01-08T03:34:43;100167.88;;;8.25;100.00
31538;BME280;18147;51.952;6.146;2023-01-08T03:37:10;100179.06;;;8.30;100.00
31538;BME280;18147;51.952;6.146;2023-01-08T03:39:55;100183.28;;;8.05;100.00
31538;BME280;18147;51.952;6.146;2023-01-08T03:42:22;100175.03;;;8.10;100.00
31538;BME280;18147;51.952;6.146;2023-01-08T03:44:47;100181.00;;;8.14;100.00
31538;BME280;18147;51.952;6.146;2023-01-08T03:47:13;100183.28;;;8.05;100.00
31538;BME280;18147;51.952;6.146;2023-01-08T03:49:40;100174.81;;;8.13;100.00
31538;BME280;18147;51.952;6.146;2023-01-08T03:52:07;100171.31;;;8.13;100.00
31538;BME280;18147;51.952;6.146;2023-01-08T03:54:35;100170.97;;;8.04;100.00
31538;BME280;18147;51.952;6.146;2023-01-08T03:57:01;100179.19;;;8.14;100.00
31538;BME280;18147;51.952;6.146;2023-01-08T03:59:27;100176.91;;;8.08;100.00
31538;BME280;18147;51.952;6.146;2023-01-08T04:01:52;100168.75;;;8.11;100.00
31538;BME280;18147;51.952;6.146;2023-01-08T04:04:18;100164.41;;;8.10;100.00
31538;BME280;18147;51.952;6.146;2023-01-08T04:06:43;100163.16;;;8.16;100.00
31538;BME280;18147;51.952;6.146;2023-01-08T04:09:09;100171.31;;;8.13;100.00
31538;BME280;18147;51.952;6.146;2023-01-08T04:11:34;100164.53;;;8.09;100.00
31538;BME280;18147;51.952;6.146;2023-01-08T04:14:00;100164.59;;;8.07;100.00
31538;BME280;18147;51.952;6.146;2023-01-08T04:16:26;100164.53;;;8.09;100.00
31538;BME280;18147;51.952;6.146;2023-01-08T04:18:51;100160.63;;;8.00;100.00
31538;BME280;18147;51.952;6.146;2023-01-08T04:21:17;100160.91;;;8.10;100.00
31538;BME280;18147;51.952;6.146;2023-01-08T04:23:42;100156.59;;;8.21;100.00
31538;BME280;18147;51.952;6.146;2023-01-08T04:26:08;100146.00;;;8.07;100.00
31538;BME280;18147;51.952;6.146;2023-01-08T04:28:33;100152.56;;;8.01;100.00
31538;BME280;18147;51.952;6.146;2023-01-08T04:30:59;100143.47;;;8.05;100.00
31538;BME280;18147;51.952;6.146;2023-01-08T04:33:24;100142.22;;;8.11;100.00
31538;BME280;18147;51.952;6.146;2023-01-08T04:35:50;100138.88;;;8.08;100.00
31538;BME280;18147;51.952;6.146;2023-01-08T04:38:16;100135.38;;;8.07;100.00
31538;BME280;18147;51.952;6.146;2023-01-08T04:40:42;100131.69;;;8.10;100.00
31538;BME280;18147;51.952;6.146;2023-01-08T04:43:08;100124.97;;;8.04;100.00
31538;BME280;18147;51.952;6.146;2023-01-08T04:45:33;100122.41;;;8.02;100.00
31538;BME280;18147;51.952;6.146;2023-01-08T04:47:59;100116.63;;;8.10;100.00
31538;BME280;18147;51.952;6.146;2023-01-08T04:50:25;100116.63;;;8.10;100.00
31538;BME280;18147;51.952;6.146;2023-01-08T04:52:50;100119.81;;;8.15;100.00
31538;BME280;18147;51.952;6.146;2023-01-08T04:55:16;100117.66;;;8.08;100.00
31538;BME280;18147;51.952;6.146;2023-01-08T04:57:42;100121.22;;;8.21;100.00
31538;BME280;18147;51.952;6.146;2023-01-08T05:00:08;100115.19;;;8.19;100.00
31538;BME280;18147;51.952;6.146;2023-01-08T05:02:33;100102.50;;;8.10;100.00
31538;BME280;18147;51.952;6.146;2023-01-08T05:04:59;100094.47;;;8.24;100.00
31538;BME280;18147;51.952;6.146;2023-01-08T05:07:24;100090.81;;;8.12;100.00
31538;BME280;18147;51.952;6.146;2023-01-08T05:09:50;100089.84;;;8.13;100.00
31538;BME280;18147;51.952;6.146;2023-01-08T05:12:16;100100.38;;;8.15;100.00
31538;BME280;18147;51.952;6.146;2023-01-08T05:14:41;100105.09;;;8.24;100.00
31538;BME280;18147;51.952;6.146;2023-01-08T05:17:07;100102.28;;;8.13;100.00
31538;BME280;18147;51.952;6.146;2023-01-08T05:19:32;100106.13;;;8.21;100.00
31538;BME280;18147;51.952;6.146;2023-01-08T05:21:57;100094.41;;;8.11;100.00
31538;BME280;18147;51.952;6.146;2023-01-08T05:24:23;100099.84;;;8.10;100.00
31538;BME280;18147;51.952;6.146;2023-01-08T05:26:50;100104.03;;;8.26;100.00
31538;BME280;18147;51.952;6.146;2023-01-08T05:29:15;100109.75;;;8.20;100.00
31538;BME280;18147;51.952;6.146;2023-01-08T05:31:41;100106.53;;;8.15;100.00
31538;BME280;18147;51.952;6.146;2023-01-08T05:34:06;100107.59;;;8.13;100.00
31538;BME280;18147;51.952;6.146;2023-01-08T05:36:32;100101.13;;;8.17;100.00
31538;BME280;18147;51.952;6.146;2023-01-08T05:38:57;100093.56;;;8.11;100.00
31538;BME280;18147;51.952;6.146;2023-01-08T05:41:23;100093.28;;;8.15;100.00
31538;BME280;18147;51.952;6.146;2023-01-08T05:43:50;100095.47;;;8.09;100.00
31538;BME280;18147;51.952;6.146;2023-01-08T05:46:15;100097.25;;;8.08;100.00
31538;BME280;18147;51.952;6.146;2023-01-08T05:48:41;100085.84;;;8.20;100.00
31538;BME280;18147;51.952;6.146;2023-01-08T05:51:06;100099.25;;;8.19;100.00
31538;BME280;18147;51.952;6.146;2023-01-08T05:53:31;100090.50;;;8.17;100.00
31538;BME280;18147;51.952;6.146;2023-01-08T05:56:02;100103.78;;;8.17;100.00
31538;BME280;18147;51.952;6.146;2023-01-08T05:58:28;100089.16;;;8.24;100.00
31538;BME280;18147;51.952;6.146;2023-01-08T06:00:59;100088.31;;;8.23;100.00
31538;BME280;18147;51.952;6.146;2023-01-08T06:03:25;100084.78;;;8.23;100.00
31538;BME280;18147;51.952;6.146;2023-01-08T06:05:50;100088.81;;;8.16;100.00
31538;BME280;18147;51.952;6.146;2023-01-08T06:08:16;100083.75;;;8.25;100.00
31538;BME280;18147;51.952;6.146;2023-01-08T06:10:41;100089.25;;;8.22;100.00
31538;BME280;18147;51.952;6.146;2023-01-08T06:13:08;100084.47;;;8.27;100.00
31538;BME280;18147;51.952;6.146;2023-01-08T06:15:33;100090.56;;;8.29;100.00
31538;BME280;18147;51.952;6.146;2023-01-08T06:18:02;100089.41;;;8.34;100.00
31538;BME280;18147;51.952;6.146;2023-01-08T06:20:28;100089.72;;;8.29;100.00
31538;BME280;18147;51.952;6.146;2023-01-08T06:22:53;100092.78;;;8.50;100.00
31538;BME280;18147;51.952;6.146;2023-01-08T06:25:19;100087.88;;;8.44;100.00
31538;BME280;18147;51.952;6.146;2023-01-08T06:27:50;100093.56;;;8.38;100.00
31538;BME280;18147;51.952;6.146;2023-01-08T06:30:15;100105.72;;;8.42;100.00
31538;BME280;18147;51.952;6.146;2023-01-08T06:32:41;100100.44;;;8.54;100.00
31538;BME280;18147;51.952;6.146;2023-01-08T06:35:06;100090.25;;;8.34;100.00
31538;BME280;18147;51.952;6.146;2023-01-08T06:37:32;100075.63;;;8.41;100.00
31538;BME280;18147;51.952;6.146;2023-01-08T06:39:57;100092.53;;;8.40;100.00
31538;BME280;18147;51.952;6.146;2023-01-08T06:42:23;100092.13;;;8.46;100.00
31538;BME280;18147;51.952;6.146;2023-01-08T06:44:48;100103.44;;;8.36;100.00
31538;BME280;18147;51.952;6.146;2023-01-08T06:47:14;100107.25;;;8.31;100.00
31538;BME280;18147;51.952;6.146;2023-01-08T06:49:39;100104.13;;;8.39;100.00
31538;BME280;18147;51.952;6.146;2023-01-08T06:52:05;100105.66;;;8.29;100.00
31538;BME280;18147;51.952;6.146;2023-01-08T06:54:30;100109.88;;;8.19;100.00
31538;BME280;18147;51.952;6.146;2023-01-08T06:56:55;100113.28;;;8.07;100.00
31538;BME280;18147;51.952;6.146;2023-01-08T06:59:21;100110.94;;;8.02;100.00
31538;BME280;18147;51.952;6.146;2023-01-08T07:01:47;100115.91;;;7.94;100.00
31538;BME280;18147;51.952;6.146;2023-01-08T07:04:12;100114.94;;;7.95;100.00
31538;BME280;18147;51.952;6.146;2023-01-08T07:06:38;100108.16;;;7.76;100.00
31538;BME280;18147;51.952;6.146;2023-01-08T07:09:03;100118.41;;;7.68;100.00
31538;BME280;18147;51.952;6.146;2023-01-08T07:11:29;100126.56;;;7.65;100.00
31538;BME280;18147;51.952;6.146;2023-01-08T07:13:55;100117.47;;;7.55;100.00
31538;BME280;18147;51.952;6.146;2023-01-08T07:16:21;100119.06;;;7.58;100.00
31538;BME280;18147;51.952;6.146;2023-01-08T07:18:46;100119.56;;;7.50;100.00
31538;BME280;18147;51.952;6.146;2023-01-08T07:21:12;100123.34;;;7.46;100.00
31538;BME280;18147;51.952;6.146;2023-01-08T07:23:38;100121.94;;;7.40;100.00
31538;BME280;18147;51.952;6.146;2023-01-08T07:26:05;100112.00;;;7.30;100.00
31538;BME280;18147;51.952;6.146;2023-01-08T07:28:31;100111.69;;;7.20;100.00
31538;BME280;18147;51.952;6.146;2023-01-08T07:30:57;100112.25;;;7.11;100.00
31538;BME280;18147;51.952;6.146;2023-01-08T07:33:26;100110.16;;;7.16;100.00
31538;BME280;18147;51.952;6.146;2023-01-08T07:35:52;100112.16;;;7.12;100.00
31538;BME280;18147;51.952;6.146;2023-01-08T07:38:18;100112.06;;;7.14;100.00
31538;BME280;18147;51.952;6.146;2023-01-08T07:40:44;100115.84;;;7.10;100.00
31538;BME280;18147;51.952;6.146;2023-01-08T07:43:09;100111.88;;;7.17;100.00
31538;BME280;18147;51.952;6.146;2023-01-08T07:45:37;100105.72;;;7.16;100.00
31538;BME280;18147;51.952;6.146;2023-01-08T07:48:02;100107.06;;;7.23;100.00
31538;BME280;18147;51.952;6.146;2023-01-08T07:50:28;100105.16;;;7.25;100.00
31538;BME280;18147;51.952;6.146;2023-01-08T07:53:00;100106.56;;;7.17;100.00
31538;BME280;18147;51.952;6.146;2023-01-08T07:55:27;100105.03;;;7.13;100.00
31538;BME280;18147;51.952;6.146;2023-01-08T07:57:53;100102.41;;;7.27;100.00
31538;BME280;18147;51.952;6.146;2023-01-08T08:00:18;100105.56;;;7.34;100.00
31538;BME280;18147;51.952;6.146;2023-01-08T08:02:44;100102.50;;;7.40;100.00
31538;BME280;18147;51.952;6.146;2023-01-08T08:05:09;100103.81;;;7.33;100.00
31538;BME280;18147;51.952;6.146;2023-01-08T08:07:35;100097.66;;;7.32;100.00
31538;BME280;18147;51.952;6.146;2023-01-08T08:10:01;100104.69;;;7.19;100.00
31538;BME280;18147;51.952;6.146;2023-01-08T08:12:26;100105.84;;;7.29;100.00
31538;BME280;18147;51.952;6.146;2023-01-08T08:14:52;100107.72;;;7.27;100.00
31538;BME280;18147;51.952;6.146;2023-01-08T08:17:17;100105.81;;;7.15;100.00
31538;BME280;18147;51.952;6.146;2023-01-08T08:19:43;100109.63;;;7.25;100.00
31538;BME280;18147;51.952;6.146;2023-01-08T08:22:11;100117.56;;;7.25;100.00
31538;BME280;18147;51.952;6.146;2023-01-08T08:24:36;100108.56;;;7.27;100.00
31538;BME280;18147;51.952;6.146;2023-01-08T08:27:02;100100.13;;;7.21;100.00
31538;BME280;18147;51.952;6.146;2023-01-08T08:29:27;100099.00;;;7.25;100.00
31538;BME280;18147;51.952;6.146;2023-01-08T08:31:53;100106.00;;;7.26;100.00
31538;BME280;18147;51.952;6.146;2023-01-08T08:34:18;100091.91;;;7.11;100.00
31538;BME280;18147;51.952;6.146;2023-01-08T08:36:47;100096.16;;;7.14;100.00
31538;BME280;18147;51.952;6.146;2023-01-08T08:39:12;100099.19;;;7.22;100.00
31538;BME280;18147;51.952;6.146;2023-01-08T08:41:38;100101.28;;;7.17;100.00
31538;BME280;18147;51.952;6.146;2023-01-08T08:44:04;100092.28;;;7.19;100.00
31538;BME280;18147;51.952;6.146;2023-01-08T08:46:29;100089.34;;;7.24;100.00
31538;BME280;18147;51.952;6.146;2023-01-08T08:48:55;100091.81;;;7.41;100.00
31538;BME280;18147;51.952;6.146;2023-01-08T08:51:20;100091.63;;;7.30;100.00
31538;BME280;18147;51.952;6.146;2023-01-08T08:53:45;100087.72;;;7.36;100.00
31538;BME280;18147;51.952;6.146;2023-01-08T08:56:11;100079.78;;;7.36;100.00
31538;BME280;18147;51.952;6.146;2023-01-08T08:58:36;100079.31;;;7.43;100.00
31538;BME280;18147;51.952;6.146;2023-01-08T09:01:03;100067.91;;;7.56;100.00
31538;BME280;18147;51.952;6.146;2023-01-08T09:03:29;100064.88;;;7.62;100.00
31538;BME280;18147;51.952;6.146;2023-01-08T09:05:54;100067.59;;;7.74;100.00
31538;BME280;18147;51.952;6.146;2023-01-08T09:08:20;100072.97;;;7.87;100.00
31538;BME280;18147;51.952;6.146;2023-01-08T09:10:45;100068.50;;;7.88;100.00
31538;BME280;18147;51.952;6.146;2023-01-08T09:13:11;100071.78;;;8.05;100.00
31538;BME280;18147;51.952;6.146;2023-01-08T09:15:37;100063.91;;;8.04;100.00
31538;BME280;18147;51.952;6.146;2023-01-08T09:18:03;100066.91;;;8.12;100.00
31538;BME280;18147;51.952;6.146;2023-01-08T09:20:29;100071.84;;;8.18;100.00
31538;BME280;18147;51.952;6.146;2023-01-08T09:22:58;100065.63;;;8.05;100.00
31538;BME280;18147;51.952;6.146;2023-01-08T09:25:23;100074.25;;;8.09;100.00
31538;BME280;18147;51.952;6.146;2023-01-08T09:27:57;100078.03;;;8.04;100.00
31538;BME280;18147;51.952;6.146;2023-01-08T09:30:23;100073.63;;;8.18;100.00
31538;BME280;18147;51.952;6.146;2023-01-08T09:32:48;100072.75;;;8.17;100.00
31538;BME280;18147;51.952;6.146;2023-01-08T09:35:14;100068.31;;;8.18;100.00
31538;BME280;18147;51.952;6.146;2023-01-08T09:37:39;100072.44;;;8.09;100.00
31538;BME280;18147;51.952;6.146;2023-01-08T09:40:05;100076.06;;;8.21;100.00
31538;BME280;18147;51.952;6.146;2023-01-08T09:42:32;100069.00;;;8.34;100.00
31538;BME280;18147;51.952;6.146;2023-01-08T09:44:59;100061.34;;;8.29;100.00
31538;BME280;18147;51.952;6.146;2023-01-08T09:47:36;100059.88;;;8.38;100.00
31538;BME280;18147;51.952;6.146;2023-01-08T09:50:05;100046.81;;;8.35;100.00
31538;BME280;18147;51.952;6.146;2023-01-08T09:52:32;100057.47;;;8.48;100.00
31538;BME280;18147;51.952;6.146;2023-01-08T09:54:59;100050.56;;;8.45;100.00
31538;BME280;18147;51.952;6.146;2023-01-08T09:57:25;100061.03;;;8.34;100.00
31538;BME280;18147;51.952;6.146;2023-01-08T09:59:51;100048.59;;;8.35;100.00
31538;BME280;18147;51.952;6.146;2023-01-08T10:02:23;100049.38;;;8.37;100.00
31538;BME280;18147;51.952;6.146;2023-01-08T10:04:54;100055.25;;;8.27;100.00
31538;BME280;18147;51.952;6.146;2023-01-08T10:07:23;100047.22;;;8.29;100.00
31538;BME280;18147;51.952;6.146;2023-01-08T10:09:50;100062.81;;;8.21;100.00
31538;BME280;18147;51.952;6.146;2023-01-08T10:12:34;100040.94;;;8.30;100.00
31538;BME280;18147;51.952;6.146;2023-01-08T10:15:12;100038.06;;;8.33;100.00
31538;BME280;18147;51.952;6.146;2023-01-08T10:17:41;100040.44;;;8.38;100.00
31538;BME280;18147;51.952;6.146;2023-01-08T10:20:22;100043.75;;;8.41;100.00
31538;BME280;18147;51.952;6.146;2023-01-08T10:22:49;100046.72;;;8.37;100.00
31538;BME280;18147;51.952;6.146;2023-01-08T10:25:17;100039.41;;;8.40;100.00
31538;BME280;18147;51.952;6.146;2023-01-08T10:27:56;100035.97;;;8.38;100.00
31538;BME280;18147;51.952;6.146;2023-01-08T10:30:32;100032.97;;;8.30;100.00
31538;BME280;18147;51.952;6.146;2023-01-08T10:33:04;100019.69;;;8.30;100.00
31538;BME280;18147;51.952;6.146;2023-01-08T10:35:38;100025.00;;;8.30;100.00
31538;BME280;18147;51.952;6.146;2023-01-08T10:38:04;100011.34;;;8.36;100.00
31538;BME280;18147;51.952;6.146;2023-01-08T10:40:40;100003.88;;;8.28;100.00
31538;BME280;18147;51.952;6.146;2023-01-08T10:43:18;100009.63;;;8.35;100.00
31538;BME280;18147;51.952;6.146;2023-01-08T10:46:06;100001.75;;;8.34;100.00
31538;BME280;18147;51.952;6.146;2023-01-08T10:48:38;100002.69;;;8.32;100.00
31538;BME280;18147;51.952;6.146;2023-01-08T10:51:05;99997.25;;;8.48;100.00
31538;BME280;18147;51.952;6.146;2023-01-08T10:53:31;99993.59;;;8.37;100.00
31538;BME280;18147;51.952;6.146;2023-01-08T10:56:00;99977.34;;;8.41;100.00
31538;BME280;18147;51.952;6.146;2023-01-08T10:58:27;99980.97;;;8.53;100.00
31538;BME280;18147;51.952;6.146;2023-01-08T11:00:53;99981.72;;;8.68;100.00
31538;BME280;18147;51.952;6.146;2023-01-08T11:03:31;99975.09;;;8.73;100.00
31538;BME280;18147;51.952;6.146;2023-01-08T11:05:57;99974.06;;;8.89;100.00
31538;BME280;18147;51.952;6.146;2023-01-08T11:08:23;99973.63;;;8.95;100.00
31538;BME280;18147;51.952;6.146;2023-01-08T11:10:59;99971.63;;;8.86;100.00
31538;BME280;18147;51.952;6.146;2023-01-08T11:13:26;99974.47;;;8.82;100.00
31538;BME280;18147;51.952;6.146;2023-01-08T11:18:26;99966.31;;;9.35;100.00
31538;BME280;18147;51.952;6.146;2023-01-08T11:20:53;99961.34;;;9.54;100.00
31538;BME280;18147;51.952;6.146;2023-01-08T11:23:30;99961.03;;;9.59;100.00
31538;BME280;18147;51.952;6.146;2023-01-08T11:26:07;99953.16;;;9.69;100.00
31538;BME280;18147;51.952;6.146;2023-01-08T11:29:01;99949.66;;;9.92;100.00
31538;BME280;18147;51.952;6.146;2023-01-08T11:34:21;99936.97;;;9.96;100.00
31538;BME280;18147;51.952;6.146;2023-01-08T11:36:53;99930.84;;;10.06;100.00
31538;BME280;18147;51.952;6.146;2023-01-08T11:39:21;99930.84;;;9.82;100.00
31538;BME280;18147;51.952;6.146;2023-01-08T11:53:46;99909.00;;;9.90;100.00
31538;BME280;18147;51.952;6.146;2023-01-08T11:59:03;99897.88;;;10.43;100.00
31538;BME280;18147;51.952;6.146;2023-01-08T12:01:40;99897.28;;;10.50;100.00
31538;BME280;18147;51.952;6.146;2023-01-08T12:04:33;99898.84;;;10.53;100.00
31538;BME280;18147;51.952;6.146;2023-01-08T12:07:17;99886.50;;;10.41;100.00
31538;BME280;18147;51.952;6.146;2023-01-08T12:09:45;99880.66;;;10.58;100.00
31538;BME280;18147;51.952;6.146;2023-01-08T12:18:03;99864.44;;;9.92;100.00
31538;BME280;18147;51.952;6.146;2023-01-08T12:20:37;99866.47;;;9.89;100.00
31538;BME280;18147;51.952;6.146;2023-01-08T12:25:59;99860.84;;;10.04;100.00
31538;BME280;18147;51.952;6.146;2023-01-08T12:28:59;99858.19;;;10.04;100.00
31538;BME280;18147;51.952;6.146;2023-01-08T12:34:34;99849.59;;;10.12;100.00
31538;BME280;18147;51.952;6.146;2023-01-08T12:37:10;99850.28;;;9.92;100.00
31538;BME280;18147;51.952;6.146;2023-01-08T12:39:46;99844.75;;;10.06;100.00
31538;BME280;18147;51.952;6.146;2023-01-08T12:42:17;99850.91;;;10.06;100.00
31538;BME280;18147;51.952;6.146;2023-01-08T12:44:50;99847.00;;;9.88;100.00
31538;BME280;18147;51.952;6.146;2023-01-08T12:47:20;99849.94;;;9.96;100.00
31538;BME280;18147;51.952;6.146;2023-01-08T12:52:50;99839.19;;;10.20;100.00
31538;BME280;18147;51.952;6.146;2023-01-08T12:55:38;99840.25;;;10.06;100.00
31538;BME280;18147;51.952;6.146;2023-01-08T13:00:40;99829.34;;;9.98;100.00
31538;BME280;18147;51.952;6.146;2023-01-08T13:03:11;99826.59;;;10.00;100.00
31538;BME280;18147;51.952;6.146;2023-01-08T13:05:40;99827.75;;;9.84;100.00
31538;BME280;18147;51.952;6.146;2023-01-08T13:08:25;99830.53;;;9.83;100.00
31538;BME280;18147;51.952;6.146;2023-01-08T13:10:53;99824.13;;;9.85;100.00
31538;BME280;18147;51.952;6.146;2023-01-08T13:13:27;99824.50;;;9.92;100.00
31538;BME280;18147;51.952;6.146;2023-01-08T13:16:22;99829.09;;;9.90;100.00
31538;BME280;18147;51.952;6.146;2023-01-08T13:18:56;99817.19;;;9.72;100.00
31538;BME280;18147;51.952;6.146;2023-01-08T13:21:30;99817.31;;;9.70;100.00
31538;BME280;18147;51.952;6.146;2023-01-08T13:26:34;99833.59;;;9.54;100.00
31538;BME280;18147;51.952;6.146;2023-01-08T13:29:24;99816.72;;;9.78;100.00
31538;BME280;18147;51.952;6.146;2023-01-08T13:31:50;99818.56;;;9.89;100.00
31538;BME280;18147;51.952;6.146;2023-01-08T13:34:19;99813.59;;;9.84;100.00
31538;BME280;18147;51.952;6.146;2023-01-08T13:36:55;99806.34;;;10.08;100.00
31538;BME280;18147;51.952;6.146;2023-01-08T13:39:22;99799.06;;;9.88;100.00
31538;BME280;18147;51.952;6.146;2023-01-08T13:44:29;99792.13;;;9.63;100.00
31538;BME280;18147;51.952;6.146;2023-01-08T13:47:00;99772.03;;;9.59;100.00
31538;BME280;18147;51.952;6.146;2023-01-08T13:49:27;99778.91;;;9.50;100.00
31538;BME280;18147;51.952;6.146;2023-01-08T13:51:54;99780.38;;;9.54;100.00
31538;BME280;18147;51.952;6.146;2023-01-08T13:54:31;99775.16;;;9.53;100.00
31538;BME280;18147;51.952;6.146;2023-01-08T13:57:12;99766.44;;;9.51;100.00
31538;BME280;18147;51.952;6.146;2023-01-08T13:59:42;99767.44;;;9.61;100.00
31538;BME280;18147;51.952;6.146;2023-01-08T14:02:26;99770.22;;;9.59;100.00
31538;BME280;18147;51.952;6.146;2023-01-08T14:04:53;99745.88;;;9.53;100.00
31538;BME280;18147;51.952;6.146;2023-01-08T14:07:19;99765.41;;;9.65;100.00